sensor_id;sensor_type;location;lat;lon;timestamp;P1;durP1;ratioP1;P2;durP2;ratioP2
21721;SDS011;11023;48.274;7.794;2023-12-28T00:00:49;3.03;;;0.90;;
21721;SDS011;11023;48.274;7.794;2023-12-28T00:03:15;2.25;;;0.82;;
21721;SDS011;11023;48.274;7.794;2023-12-28T00:05:41;2.60;;;0.93;;
21721;SDS011;11023;48.274;7.794;2023-12-28T00:08:06;1.40;;;0.90;;
21721;SDS011;11023;48.274;7.794;2023-12-28T00:10:32;1.50;;;0.90;;
21721;SDS011;11023;48.274;7.794;2023-12-28T00:12:57;2.55;;;0.90;;
21721;SDS011;11023;48.274;7.794;2023-12-28T00:15:23;2.13;;;0.73;;
21721;SDS011;11023;48.274;7.794;2023-12-28T00:17:49;2.35;;;1.02;;
21721;SDS011;11023;48.274;7.794;2023-12-28T00:20:15;1.50;;;1.13;;
21721;SDS011;11023;48.274;7.794;2023-12-28T00:22:40;1.15;;;0.90;;
21721;SDS011;11023;48.274;7.794;2023-12-28T00:25:06;1.80;;;0.90;;
21721;SDS011;11023;48.274;7.794;2023-12-28T00:27:32;2.67;;;0.85;;
21721;SDS011;11023;48.274;7.794;2023-12-28T00:30:03;1.52;;;0.70;;
21721;SDS011;11023;48.274;7.794;2023-12-28T00:32:30;2.65;;;0.88;;
21721;SDS011;11023;48.274;7.794;2023-12-28T00:34:55;2.38;;;0.93;;
21721;SDS011;11023;48.274;7.794;2023-12-28T00:37:21;1.58;;;1.00;;
21721;SDS011;11023;48.274;7.794;2023-12-28T00:39:47;2.42;;;1.00;;
21721;SDS011;11023;48.274;7.794;2023-12-28T00:42:15;2.22;;;0.80;;
21721;SDS011;11023;48.274;7.794;2023-12-28T00:44:41;1.75;;;1.00;;
21721;SDS011;11023;48.274;7.794;2023-12-28T00:47:06;1.60;;;1.10;;
21721;SDS011;11023;48.274;7.794;2023-12-28T00:49:32;1.45;;;0.85;;
21721;SDS011;11023;48.274;7.794;2023-12-28T00:51:58;2.67;;;0.98;;
21721;SDS011;11023;48.274;7.794;2023-12-28T00:54:24;2.35;;;1.08;;
21721;SDS011;11023;48.274;7.794;2023-12-28T00:56:49;2.15;;;0.95;;
21721;SDS011;11023;48.274;7.794;2023-12-28T00:59:15;2.10;;;1.00;;
21721;SDS011;11023;48.274;7.794;2023-12-28T01:01:42;1.30;;;0.75;;
21721;SDS011;11023;48.274;7.794;2023-12-28T01:04:07;2.25;;;0.90;;
21721;SDS011;11023;48.274;7.794;2023-12-28T01:06:33;2.60;;;0.90;;
21721;SDS011;11023;48.274;7.794;2023-12-28T01:08:59;2.30;;;0.82;;
21721;SDS011;11023;48.274;7.794;2023-12-28T01:11:24;1.60;;;1.00;;
21721;SDS011;11023;48.274;7.794;2023-12-28T01:13:53;1.98;;;1.02;;
21721;SDS011;11023;48.274;7.794;2023-12-28T01:16:19;2.90;;;0.88;;
21721;SDS011;11023;48.274;7.794;2023-12-28T01:18:45;1.67;;;0.90;;
21721;SDS011;11023;48.274;7.794;2023-12-28T01:21:11;3.92;;;0.93;;
21721;SDS011;11023;48.274;7.794;2023-12-28T01:23:37;4.35;;;1.33;;
21721;SDS011;11023;48.274;7.794;2023-12-28T01:26:03;2.65;;;0.90;;
21721;SDS011;11023;48.274;7.794;2023-12-28T01:28:28;1.63;;;1.02;;
21721;SDS011;11023;48.274;7.794;2023-12-28T01:30:55;1.45;;;0.70;;
21721;SDS011;11023;48.274;7.794;2023-12-28T01:33:20;1.75;;;0.80;;
21721;SDS011;11023;48.274;7.794;2023-12-28T01:35:46;2.28;;;0.90;;
21721;SDS011;11023;48.274;7.794;2023-12-28T01:38:12;2.40;;;1.15;;
21721;SDS011;11023;48.274;7.794;2023-12-28T01:40:37;1.38;;;0.93;;
21721;SDS011;11023;48.274;7.794;2023-12-28T01:43:03;1.73;;;0.90;;
21721;SDS011;11023;48.274;7.794;2023-12-28T01:45:29;3.13;;;1.10;;
21721;SDS011;11023;48.274;7.794;2023-12-28T01:47:55;2.65;;;0.98;;
21721;SDS011;11023;48.274;7.794;2023-12-28T01:50:23;1.92;;;0.88;;
21721;SDS011;11023;48.274;7.794;2023-12-28T01:52:51;3.05;;;1.05;;
21721;SDS011;11023;48.274;7.794;2023-12-28T01:55:17;1.00;;;0.75;;
21721;SDS011;11023;48.274;7.794;2023-12-28T01:57:43;3.30;;;0.90;;
21721;SDS011;11023;48.274;7.794;2023-12-28T02:00:10;2.38;;;1.15;;
21721;SDS011;11023;48.274;7.794;2023-12-28T02:02:36;1.35;;;0.73;;
21721;SDS011;11023;48.274;7.794;2023-12-28T02:05:02;1.70;;;0.90;;
21721;SDS011;11023;48.274;7.794;2023-12-28T02:07:28;5.03;;;1.02;;
21721;SDS011;11023;48.274;7.794;2023-12-28T02:09:54;1.40;;;0.68;;
21721;SDS011;11023;48.274;7.794;2023-12-28T02:12:20;1.98;;;0.82;;
21721;SDS011;11023;48.274;7.794;2023-12-28T02:14:46;1.40;;;0.98;;
21721;SDS011;11023;48.274;7.794;2023-12-28T02:17:34;1.95;;;0.88;;
21721;SDS011;11023;48.274;7.794;2023-12-28T02:20:00;4.10;;;1.35;;
21721;SDS011;11023;48.274;7.794;2023-12-28T02:22:30;2.85;;;0.88;;
21721;SDS011;11023;48.274;7.794;2023-12-28T02:25:09;2.60;;;1.05;;
21721;SDS011;11023;48.274;7.794;2023-12-28T02:27:38;1.23;;;0.70;;
21721;SDS011;11023;48.274;7.794;2023-12-28T02:30:10;2.85;;;0.93;;
21721;SDS011;11023;48.274;7.794;2023-12-28T02:32:47;2.42;;;1.00;;
21721;SDS011;11023;48.274;7.794;2023-12-28T02:38:23;1.15;;;0.63;;
21721;SDS011;11023;48.274;7.794;2023-12-28T02:40:50;1.35;;;0.63;;
21721;SDS011;11023;48.274;7.794;2023-12-28T02:43:17;1.48;;;0.88;;
21721;SDS011;11023;48.274;7.794;2023-12-28T02:45:43;4.05;;;1.33;;
21721;SDS011;11023;48.274;7.794;2023-12-28T02:48:09;1.23;;;0.70;;
21721;SDS011;11023;48.274;7.794;2023-12-28T02:50:35;2.63;;;1.00;;
21721;SDS011;11023;48.274;7.794;2023-12-28T02:53:01;4.13;;;1.17;;
21721;SDS011;11023;48.274;7.794;2023-12-28T02:55:27;1.25;;;1.02;;
21721;SDS011;11023;48.274;7.794;2023-12-28T02:57:53;1.42;;;1.00;;
21721;SDS011;11023;48.274;7.794;2023-12-28T03:00:21;3.38;;;1.10;;
21721;SDS011;11023;48.274;7.794;2023-12-28T03:02:47;1.85;;;0.90;;
21721;SDS011;11023;48.274;7.794;2023-12-28T03:05:12;1.13;;;0.93;;
21721;SDS011;11023;48.274;7.794;2023-12-28T03:07:38;1.40;;;0.88;;
21721;SDS011;11023;48.274;7.794;2023-12-28T03:10:05;1.75;;;1.05;;
21721;SDS011;11023;48.274;7.794;2023-12-28T03:12:32;1.42;;;0.70;;
21721;SDS011;11023;48.274;7.794;2023-12-28T03:14:57;1.85;;;1.02;;
21721;SDS011;11023;48.274;7.794;2023-12-28T03:17:25;2.38;;;0.90;;
21721;SDS011;11023;48.274;7.794;2023-12-28T03:19:51;2.00;;;1.08;;
21721;SDS011;11023;48.274;7.794;2023-12-28T03:22:17;2.45;;;0.90;;
21721;SDS011;11023;48.274;7.794;2023-12-28T03:24:43;1.33;;;0.82;;
21721;SDS011;11023;48.274;7.794;2023-12-28T03:27:09;1.67;;;0.95;;
21721;SDS011;11023;48.274;7.794;2023-12-28T03:29:34;2.08;;;0.98;;
21721;SDS011;11023;48.274;7.794;2023-12-28T03:32:01;3.05;;;0.90;;
21721;SDS011;11023;48.274;7.794;2023-12-28T03:34:27;1.45;;;0.75;;
21721;SDS011;11023;48.274;7.794;2023-12-28T03:36:55;2.35;;;0.98;;
21721;SDS011;11023;48.274;7.794;2023-12-28T03:39:22;2.42;;;1.00;;
21721;SDS011;11023;48.274;7.794;2023-12-28T03:41:48;1.38;;;0.70;;
21721;SDS011;11023;48.274;7.794;2023-12-28T03:44:14;1.42;;;0.68;;
21721;SDS011;11023;48.274;7.794;2023-12-28T03:46:39;2.22;;;1.20;;
21721;SDS011;11023;48.274;7.794;2023-12-28T03:49:05;1.33;;;0.80;;
21721;SDS011;11023;48.274;7.794;2023-12-28T03:51:31;1.65;;;0.80;;
21721;SDS011;11023;48.274;7.794;2023-12-28T03:53:57;1.67;;;0.60;;
21721;SDS011;11023;48.274;7.794;2023-12-28T03:56:23;2.30;;;0.88;;
21721;SDS011;11023;48.274;7.794;2023-12-28T03:58:49;1.08;;;0.65;;
21721;SDS011;11023;48.274;7.794;2023-12-28T04:01:19;1.20;;;0.77;;
21721;SDS011;11023;48.274;7.794;2023-12-28T04:03:46;1.60;;;0.80;;
21721;SDS011;11023;48.274;7.794;2023-12-28T04:06:12;2.90;;;0.90;;
21721;SDS011;11023;48.274;7.794;2023-12-28T04:08:41;1.83;;;1.10;;
21721;SDS011;11023;48.274;7.794;2023-12-28T04:11:08;1.27;;;0.82;;
21721;SDS011;11023;48.274;7.794;2023-12-28T04:13:35;1.75;;;0.52;;
21721;SDS011;11023;48.274;7.794;2023-12-28T04:16:01;1.13;;;0.88;;
21721;SDS011;11023;48.274;7.794;2023-12-28T04:18:27;1.45;;;0.60;;
21721;SDS011;11023;48.274;7.794;2023-12-28T04:20:54;1.17;;;0.50;;
21721;SDS011;11023;48.274;7.794;2023-12-28T04:23:19;1.88;;;0.65;;
21721;SDS011;11023;48.274;7.794;2023-12-28T04:25:45;2.63;;;0.65;;
21721;SDS011;11023;48.274;7.794;2023-12-28T04:28:11;2.45;;;1.05;;
21721;SDS011;11023;48.274;7.794;2023-12-28T04:30:36;1.60;;;0.60;;
21721;SDS011;11023;48.274;7.794;2023-12-28T04:33:02;1.45;;;0.60;;
21721;SDS011;11023;48.274;7.794;2023-12-28T04:35:28;1.77;;;0.75;;
21721;SDS011;11023;48.274;7.794;2023-12-28T04:37:54;1.58;;;0.80;;
21721;SDS011;11023;48.274;7.794;2023-12-28T04:40:23;2.72;;;0.63;;
21721;SDS011;11023;48.274;7.794;2023-12-28T04:42:48;2.13;;;0.88;;
21721;SDS011;11023;48.274;7.794;2023-12-28T04:45:14;2.85;;;0.80;;
21721;SDS011;11023;48.274;7.794;2023-12-28T04:47:40;1.23;;;0.70;;
21721;SDS011;11023;48.274;7.794;2023-12-28T04:50:06;1.13;;;0.73;;
21721;SDS011;11023;48.274;7.794;2023-12-28T04:52:32;2.55;;;0.60;;
21721;SDS011;11023;48.274;7.794;2023-12-28T04:54:58;0.70;;;0.70;;
21721;SDS011;11023;48.274;7.794;2023-12-28T04:57:24;0.93;;;0.73;;
21721;SDS011;11023;48.274;7.794;2023-12-28T04:59:51;1.13;;;0.70;;
21721;SDS011;11023;48.274;7.794;2023-12-28T05:02:17;3.80;;;0.70;;
21721;SDS011;11023;48.274;7.794;2023-12-28T05:04:43;1.58;;;0.80;;
21721;SDS011;11023;48.274;7.794;2023-12-28T05:07:09;3.75;;;0.90;;
21721;SDS011;11023;48.274;7.794;2023-12-28T05:09:35;2.45;;;0.80;;
21721;SDS011;11023;48.274;7.794;2023-12-28T05:12:01;0.93;;;0.80;;
21721;SDS011;11023;48.274;7.794;2023-12-28T05:14:27;1.77;;;0.90;;
21721;SDS011;11023;48.274;7.794;2023-12-28T05:16:53;1.05;;;0.90;;
21721;SDS011;11023;48.274;7.794;2023-12-28T05:19:18;1.25;;;0.80;;
21721;SDS011;11023;48.274;7.794;2023-12-28T05:21:44;0.90;;;0.63;;
21721;SDS011;11023;48.274;7.794;2023-12-28T05:24:11;2.05;;;0.90;;
21721;SDS011;11023;48.274;7.794;2023-12-28T05:26:37;1.83;;;0.90;;
21721;SDS011;11023;48.274;7.794;2023-12-28T05:29:02;1.67;;;1.08;;
21721;SDS011;11023;48.274;7.794;2023-12-28T05:31:28;1.75;;;0.85;;
21721;SDS011;11023;48.274;7.794;2023-12-28T05:33:54;1.75;;;0.63;;
21721;SDS011;11023;48.274;7.794;2023-12-28T05:36:23;1.33;;;0.77;;
21721;SDS011;11023;48.274;7.794;2023-12-28T05:38:49;1.13;;;0.80;;
21721;SDS011;11023;48.274;7.794;2023-12-28T05:41:15;1.95;;;0.70;;
21721;SDS011;11023;48.274;7.794;2023-12-28T05:43:41;1.38;;;0.68;;
21721;SDS011;11023;48.274;7.794;2023-12-28T05:46:07;1.38;;;0.75;;
21721;SDS011;11023;48.274;7.794;2023-12-28T05:48:33;1.35;;;0.80;;
21721;SDS011;11023;48.274;7.794;2023-12-28T05:50:59;1.13;;;0.70;;
21721;SDS011;11023;48.274;7.794;2023-12-28T05:53:25;2.65;;;0.90;;
21721;SDS011;11023;48.274;7.794;2023-12-28T05:55:52;2.10;;;0.98;;
21721;SDS011;11023;48.274;7.794;2023-12-28T05:58:17;2.15;;;1.00;;
21721;SDS011;11023;48.274;7.794;2023-12-28T06:00:43;1.33;;;0.80;;
21721;SDS011;11023;48.274;7.794;2023-12-28T06:03:11;0.95;;;0.52;;
21721;SDS011;11023;48.274;7.794;2023-12-28T06:05:37;1.33;;;0.80;;
21721;SDS011;11023;48.274;7.794;2023-12-28T06:08:03;2.22;;;0.82;;
21721;SDS011;11023;48.274;7.794;2023-12-28T06:10:29;2.22;;;1.05;;
21721;SDS011;11023;48.274;7.794;2023-12-28T06:12:55;2.75;;;0.95;;
21721;SDS011;11023;48.274;7.794;2023-12-28T06:15:21;1.58;;;0.93;;
21721;SDS011;11023;48.274;7.794;2023-12-28T06:17:47;2.85;;;1.02;;
21721;SDS011;11023;48.274;7.794;2023-12-28T06:20:12;2.42;;;0.93;;
21721;SDS011;11023;48.274;7.794;2023-12-28T06:22:38;1.75;;;0.88;;
21721;SDS011;11023;48.274;7.794;2023-12-28T06:25:04;1.17;;;0.82;;
21721;SDS011;11023;48.274;7.794;2023-12-28T06:27:31;1.70;;;0.98;;
21721;SDS011;11023;48.274;7.794;2023-12-28T06:29:57;1.77;;;0.80;;
21721;SDS011;11023;48.274;7.794;2023-12-28T06:32:22;1.33;;;0.70;;
21721;SDS011;11023;48.274;7.794;2023-12-28T06:34:48;4.03;;;0.95;;
21721;SDS011;11023;48.274;7.794;2023-12-28T06:37:14;2.40;;;0.93;;
21721;SDS011;11023;48.274;7.794;2023-12-28T06:39:40;1.52;;;0.82;;
21721;SDS011;11023;48.274;7.794;2023-12-28T06:42:05;1.45;;;0.93;;
21721;SDS011;11023;48.274;7.794;2023-12-28T06:44:31;3.92;;;1.05;;
21721;SDS011;11023;48.274;7.794;2023-12-28T06:46:57;2.10;;;0.90;;
21721;SDS011;11023;48.274;7.794;2023-12-28T06:49:24;2.35;;;0.90;;
21721;SDS011;11023;48.274;7.794;2023-12-28T06:51:50;1.52;;;0.47;;
21721;SDS011;11023;48.274;7.794;2023-12-28T06:54:16;2.10;;;0.90;;
21721;SDS011;11023;48.274;7.794;2023-12-28T06:56:42;1.02;;;0.90;;
21721;SDS011;11023;48.274;7.794;2023-12-28T06:59:08;2.15;;;0.70;;
21721;SDS011;11023;48.274;7.794;2023-12-28T07:01:40;1.25;;;0.75;;
21721;SDS011;11023;48.274;7.794;2023-12-28T07:04:06;4.13;;;0.90;;
21721;SDS011;11023;48.274;7.794;2023-12-28T07:06:32;1.42;;;0.90;;
21721;SDS011;11023;48.274;7.794;2023-12-28T07:08:57;3.35;;;0.95;;
21721;SDS011;11023;48.274;7.794;2023-12-28T07:11:23;0.63;;;0.60;;
21721;SDS011;11023;48.274;7.794;2023-12-28T07:13:49;1.08;;;0.75;;
21721;SDS011;11023;48.274;7.794;2023-12-28T07:16:14;2.90;;;0.85;;
21721;SDS011;11023;48.274;7.794;2023-12-28T07:18:41;1.50;;;0.70;;
21721;SDS011;11023;48.274;7.794;2023-12-28T07:21:06;1.70;;;1.20;;
21721;SDS011;11023;48.274;7.794;2023-12-28T07:23:34;4.38;;;1.05;;
21721;SDS011;11023;48.274;7.794;2023-12-28T07:26:01;1.83;;;0.85;;
21721;SDS011;11023;48.274;7.794;2023-12-28T07:28:27;4.20;;;0.77;;
21721;SDS011;11023;48.274;7.794;2023-12-28T07:30:53;3.47;;;1.20;;
21721;SDS011;11023;48.274;7.794;2023-12-28T07:33:18;4.60;;;0.80;;
21721;SDS011;11023;48.274;7.794;2023-12-28T07:35:44;3.17;;;1.08;;
21721;SDS011;11023;48.274;7.794;2023-12-28T07:38:10;1.58;;;0.77;;
21721;SDS011;11023;48.274;7.794;2023-12-28T07:40:37;1.30;;;0.60;;
21721;SDS011;11023;48.274;7.794;2023-12-28T07:43:02;1.90;;;0.50;;
21721;SDS011;11023;48.274;7.794;2023-12-28T07:45:29;0.98;;;0.75;;
21721;SDS011;11023;48.274;7.794;2023-12-28T07:47:54;1.08;;;0.70;;
21721;SDS011;11023;48.274;7.794;2023-12-28T07:50:20;1.30;;;0.65;;
21721;SDS011;11023;48.274;7.794;2023-12-28T07:52:46;2.20;;;0.70;;
21721;SDS011;11023;48.274;7.794;2023-12-28T07:55:13;1.15;;;0.63;;
21721;SDS011;11023;48.274;7.794;2023-12-28T07:57:39;1.10;;;0.75;;
21721;SDS011;11023;48.274;7.794;2023-12-28T08:00:07;1.75;;;0.93;;
21721;SDS011;11023;48.274;7.794;2023-12-28T08:02:33;2.00;;;0.95;;
21721;SDS011;11023;48.274;7.794;2023-12-28T08:04:59;1.15;;;0.80;;
21721;SDS011;11023;48.274;7.794;2023-12-28T08:07:25;2.15;;;0.90;;
21721;SDS011;11023;48.274;7.794;2023-12-28T08:09:52;2.28;;;0.70;;
21721;SDS011;11023;48.274;7.794;2023-12-28T08:12:18;1.60;;;0.70;;
21721;SDS011;11023;48.274;7.794;2023-12-28T08:14:46;2.83;;;0.82;;
21721;SDS011;11023;48.274;7.794;2023-12-28T08:17:12;2.47;;;0.90;;
21721;SDS011;11023;48.274;7.794;2023-12-28T08:19:37;2.55;;;0.75;;
21721;SDS011;11023;48.274;7.794;2023-12-28T08:22:03;1.02;;;0.50;;
21721;SDS011;11023;48.274;7.794;2023-12-28T08:24:29;1.15;;;0.70;;
21721;SDS011;11023;48.274;7.794;2023-12-28T08:26:55;2.90;;;0.90;;
21721;SDS011;11023;48.274;7.794;2023-12-28T08:29:25;1.58;;;1.00;;
21721;SDS011;11023;48.274;7.794;2023-12-28T08:31:51;2.13;;;0.63;;
21721;SDS011;11023;48.274;7.794;2023-12-28T08:34:17;1.35;;;0.80;;
21721;SDS011;11023;48.274;7.794;2023-12-28T08:36:43;1.67;;;0.80;;
21721;SDS011;11023;48.274;7.794;2023-12-28T08:39:08;2.22;;;1.02;;
21721;SDS011;11023;48.274;7.794;2023-12-28T08:41:34;1.88;;;0.88;;
21721;SDS011;11023;48.274;7.794;2023-12-28T08:44:00;1.75;;;0.70;;
21721;SDS011;11023;48.274;7.794;2023-12-28T08:46:26;1.23;;;0.90;;
21721;SDS011;11023;48.274;7.794;2023-12-28T08:48:51;1.65;;;0.75;;
21721;SDS011;11023;48.274;7.794;2023-12-28T08:51:17;0.90;;;0.70;;
21721;SDS011;11023;48.274;7.794;2023-12-28T08:53:45;1.50;;;1.10;;
21721;SDS011;11023;48.274;7.794;2023-12-28T08:56:21;1.00;;;0.65;;
21721;SDS011;11023;48.274;7.794;2023-12-28T08:58:48;1.13;;;0.70;;
21721;SDS011;11023;48.274;7.794;2023-12-28T09:01:15;1.23;;;0.70;;
21721;SDS011;11023;48.274;7.794;2023-12-28T09:03:42;3.22;;;0.90;;
21721;SDS011;11023;48.274;7.794;2023-12-28T09:06:08;3.22;;;0.70;;
21721;SDS011;11023;48.274;7.794;2023-12-28T09:08:35;4.13;;;1.05;;
21721;SDS011;11023;48.274;7.794;2023-12-28T09:11:00;1.77;;;0.80;;
21721;SDS011;11023;48.274;7.794;2023-12-28T09:13:26;1.48;;;1.00;;
21721;SDS011;11023;48.274;7.794;2023-12-28T09:15:52;1.17;;;0.90;;
21721;SDS011;11023;48.274;7.794;2023-12-28T09:18:18;1.45;;;0.60;;
21721;SDS011;11023;48.274;7.794;2023-12-28T09:20:43;1.45;;;0.70;;
21721;SDS011;11023;48.274;7.794;2023-12-28T09:23:09;1.13;;;0.70;;
21721;SDS011;11023;48.274;7.794;2023-12-28T09:25:36;2.33;;;0.75;;
21721;SDS011;11023;48.274;7.794;2023-12-28T09:28:04;0.80;;;0.70;;
21721;SDS011;11023;48.274;7.794;2023-12-28T09:30:30;1.45;;;0.70;;
21721;SDS011;11023;48.274;7.794;2023-12-28T09:32:56;2.00;;;0.80;;
21721;SDS011;11023;48.274;7.794;2023-12-28T09:35:22;1.67;;;1.00;;
21721;SDS011;11023;48.274;7.794;2023-12-28T09:37:50;1.35;;;0.80;;
21721;SDS011;11023;48.274;7.794;2023-12-28T09:40:16;3.97;;;0.90;;
21721;SDS011;11023;48.274;7.794;2023-12-28T09:42:48;2.35;;;0.55;;
21721;SDS011;11023;48.274;7.794;2023-12-28T09:45:22;1.90;;;0.90;;
21721;SDS011;11023;48.274;7.794;2023-12-28T09:47:47;1.63;;;0.85;;
21721;SDS011;11023;48.274;7.794;2023-12-28T09:50:16;1.35;;;0.75;;
21721;SDS011;11023;48.274;7.794;2023-12-28T09:52:43;0.65;;;0.60;;
21721;SDS011;11023;48.274;7.794;2023-12-28T09:55:08;2.05;;;0.82;;
21721;SDS011;11023;48.274;7.794;2023-12-28T09:57:35;1.83;;;1.00;;
21721;SDS011;11023;48.274;7.794;2023-12-28T10:00:02;4.40;;;1.08;;
21721;SDS011;11023;48.274;7.794;2023-12-28T10:02:28;1.83;;;0.75;;
21721;SDS011;11023;48.274;7.794;2023-12-28T10:04:57;1.40;;;0.75;;
21721;SDS011;11023;48.274;7.794;2023-12-28T10:07:23;1.60;;;0.88;;
21721;SDS011;11023;48.274;7.794;2023-12-28T10:09:49;1.75;;;0.80;;
21721;SDS011;11023;48.274;7.794;2023-12-28T10:12:15;3.75;;;0.88;;
21721;SDS011;11023;48.274;7.794;2023-12-28T10:14:41;1.65;;;0.73;;
21721;SDS011;11023;48.274;7.794;2023-12-28T10:17:07;2.70;;;0.80;;
21721;SDS011;11023;48.274;7.794;2023-12-28T10:19:34;3.42;;;1.02;;
21721;SDS011;11023;48.274;7.794;2023-12-28T10:22:01;1.30;;;0.60;;
21721;SDS011;11023;48.274;7.794;2023-12-28T10:24:27;2.80;;;0.70;;
21721;SDS011;11023;48.274;7.794;2023-12-28T10:26:53;3.15;;;0.98;;
21721;SDS011;11023;48.274;7.794;2023-12-28T10:29:19;1.13;;;0.80;;
21721;SDS011;11023;48.274;7.794;2023-12-28T10:31:45;0.75;;;0.63;;
21721;SDS011;11023;48.274;7.794;2023-12-28T10:34:14;2.45;;;0.75;;
21721;SDS011;11023;48.274;7.794;2023-12-28T10:36:40;2.95;;;0.85;;
21721;SDS011;11023;48.274;7.794;2023-12-28T10:39:07;3.08;;;0.90;;
21721;SDS011;11023;48.274;7.794;2023-12-28T10:41:36;2.08;;;0.90;;
21721;SDS011;11023;48.274;7.794;2023-12-28T10:44:05;3.53;;;1.92;;
21721;SDS011;11023;48.274;7.794;2023-12-28T10:46:33;2.13;;;1.30;;
21721;SDS011;11023;48.274;7.794;2023-12-28T10:49:10;2.13;;;0.88;;
21721;SDS011;11023;48.274;7.794;2023-12-28T10:51:42;1.70;;;1.20;;
21721;SDS011;11023;48.274;7.794;2023-12-28T10:56:46;1.75;;;1.17;;
21721;SDS011;11023;48.274;7.794;2023-12-28T11:02:09;1.92;;;0.85;;
21721;SDS011;11023;48.274;7.794;2023-12-28T11:04:44;2.30;;;0.77;;
21721;SDS011;11023;48.274;7.794;2023-12-28T11:07:14;2.28;;;0.98;;
21721;SDS011;11023;48.274;7.794;2023-12-28T11:09:42;3.00;;;0.90;;
21721;SDS011;11023;48.274;7.794;2023-12-28T11:12:09;1.67;;;0.90;;
21721;SDS011;11023;48.274;7.794;2023-12-28T11:14:36;2.08;;;1.00;;
21721;SDS011;11023;48.274;7.794;2023-12-28T11:17:05;2.45;;;0.93;;
21721;SDS011;11023;48.274;7.794;2023-12-28T11:19:31;1.60;;;1.00;;
21721;SDS011;11023;48.274;7.794;2023-12-28T11:22:00;1.75;;;1.08;;
21721;SDS011;11023;48.274;7.794;2023-12-28T11:24:28;1.65;;;0.98;;
21721;SDS011;11023;48.274;7.794;2023-12-28T11:26:55;2.55;;;0.70;;
21721;SDS011;11023;48.274;7.794;2023-12-28T11:29:23;2.15;;;0.77;;
21721;SDS011;11023;48.274;7.794;2023-12-28T11:31:52;1.70;;;1.08;;
21721;SDS011;11023;48.274;7.794;2023-12-28T11:34:30;1.13;;;0.95;;
21721;SDS011;11023;48.274;7.794;2023-12-28T11:37:02;2.92;;;0.98;;
21721;SDS011;11023;48.274;7.794;2023-12-28T11:39:32;1.83;;;1.08;;
21721;SDS011;11023;48.274;7.794;2023-12-28T11:42:01;1.45;;;1.20;;
21721;SDS011;11023;48.274;7.794;2023-12-28T11:44:29;2.55;;;1.10;;
21721;SDS011;11023;48.274;7.794;2023-12-28T11:47:14;2.47;;;1.10;;
21721;SDS011;11023;48.274;7.794;2023-12-28T11:49:43;2.50;;;1.27;;
21721;SDS011;11023;48.274;7.794;2023-12-28T11:52:27;2.58;;;1.25;;
21721;SDS011;11023;48.274;7.794;2023-12-28T11:55:02;4.63;;;0.75;;
21721;SDS011;11023;48.274;7.794;2023-12-28T11:57:29;2.72;;;1.23;;
21721;SDS011;11023;48.274;7.794;2023-12-28T12:00:02;2.13;;;1.30;;
21721;SDS011;11023;48.274;7.794;2023-12-28T12:02:32;6.05;;;1.23;;
21721;SDS011;11023;48.274;7.794;2023-12-28T12:04:59;4.80;;;1.00;;
21721;SDS011;11023;48.274;7.794;2023-12-28T12:07:26;1.52;;;1.38;;
21721;SDS011;11023;48.274;7.794;2023-12-28T12:09:58;2.72;;;0.95;;
21721;SDS011;11023;48.274;7.794;2023-12-28T12:12:24;1.70;;;1.23;;
21721;SDS011;11023;48.274;7.794;2023-12-28T12:14:51;1.38;;;1.00;;
21721;SDS011;11023;48.274;7.794;2023-12-28T12:17:17;2.28;;;1.00;;
21721;SDS011;11023;48.274;7.794;2023-12-28T12:19:44;2.20;;;1.08;;
21721;SDS011;11023;48.274;7.794;2023-12-28T12:22:14;2.90;;;1.25;;
21721;SDS011;11023;48.274;7.794;2023-12-28T12:24:41;2.05;;;1.20;;
21721;SDS011;11023;48.274;7.794;2023-12-28T12:27:11;1.20;;;1.00;;
21721;SDS011;11023;48.274;7.794;2023-12-28T12:29:38;10.15;;;1.60;;
21721;SDS011;11023;48.274;7.794;2023-12-28T12:32:06;4.50;;;1.10;;
21721;SDS011;11023;48.274;7.794;2023-12-28T12:34:33;2.17;;;0.95;;
21721;SDS011;11023;48.274;7.794;2023-12-28T12:36:59;2.47;;;1.13;;
21721;SDS011;11023;48.274;7.794;2023-12-28T12:39:25;2.63;;;1.20;;
21721;SDS011;11023;48.274;7.794;2023-12-28T12:41:52;1.67;;;1.20;;
21721;SDS011;11023;48.274;7.794;2023-12-28T12:44:21;2.80;;;1.20;;
21721;SDS011;11023;48.274;7.794;2023-12-28T12:46:55;2.60;;;1.20;;
21721;SDS011;11023;48.274;7.794;2023-12-28T12:49:23;5.68;;;1.20;;
21721;SDS011;11023;48.274;7.794;2023-12-28T12:51:49;5.07;;;1.88;;
21721;SDS011;11023;48.274;7.794;2023-12-28T12:54:17;3.03;;;1.70;;
21721;SDS011;11023;48.274;7.794;2023-12-28T12:56:45;4.63;;;1.70;;
21721;SDS011;11023;48.274;7.794;2023-12-28T12:59:12;2.80;;;1.48;;
21721;SDS011;11023;48.274;7.794;2023-12-28T13:01:43;2.28;;;1.35;;
21721;SDS011;11023;48.274;7.794;2023-12-28T13:04:10;2.78;;;1.60;;
21721;SDS011;11023;48.274;7.794;2023-12-28T13:06:37;1.75;;;1.30;;
21721;SDS011;11023;48.274;7.794;2023-12-28T13:09:04;2.45;;;1.83;;
21721;SDS011;11023;48.274;7.794;2023-12-28T13:11:32;3.58;;;1.58;;
21721;SDS011;11023;48.274;7.794;2023-12-28T13:13:59;3.10;;;1.60;;
21721;SDS011;11023;48.274;7.794;2023-12-28T13:16:25;4.13;;;1.42;;
21721;SDS011;11023;48.274;7.794;2023-12-28T13:18:51;2.90;;;2.10;;
21721;SDS011;11023;48.274;7.794;2023-12-28T13:21:16;4.03;;;1.75;;
21721;SDS011;11023;48.274;7.794;2023-12-28T13:23:42;4.75;;;1.77;;
21721;SDS011;11023;48.274;7.794;2023-12-28T13:26:08;2.85;;;1.20;;
21721;SDS011;11023;48.274;7.794;2023-12-28T13:28:34;4.07;;;1.52;;
21721;SDS011;11023;48.274;7.794;2023-12-28T13:30:59;3.17;;;1.45;;
21721;SDS011;11023;48.274;7.794;2023-12-28T13:33:25;2.83;;;1.48;;
21721;SDS011;11023;48.274;7.794;2023-12-28T13:35:51;3.10;;;1.63;;
21721;SDS011;11023;48.274;7.794;2023-12-28T13:38:17;2.88;;;1.50;;
21721;SDS011;11023;48.274;7.794;2023-12-28T13:40:45;3.55;;;1.20;;
21721;SDS011;11023;48.274;7.794;2023-12-28T13:43:10;1.88;;;1.30;;
21721;SDS011;11023;48.274;7.794;2023-12-28T13:45:36;3.08;;;1.40;;
21721;SDS011;11023;48.274;7.794;2023-12-28T13:48:02;4.60;;;1.13;;
21721;SDS011;11023;48.274;7.794;2023-12-28T13:50:28;2.42;;;1.80;;
21721;SDS011;11023;48.274;7.794;2023-12-28T13:52:54;3.30;;;1.52;;
21721;SDS011;11023;48.274;7.794;2023-12-28T13:55:19;2.67;;;1.80;;
21721;SDS011;11023;48.274;7.794;2023-12-28T13:57:45;1.70;;;1.40;;
21721;SDS011;11023;48.274;7.794;2023-12-28T14:00:11;3.22;;;1.30;;
21721;SDS011;11023;48.274;7.794;2023-12-28T14:02:38;2.60;;;1.50;;
21721;SDS011;11023;48.274;7.794;2023-12-28T14:05:05;4.28;;;1.90;;
21721;SDS011;11023;48.274;7.794;2023-12-28T14:07:31;3.30;;;1.67;;
21721;SDS011;11023;48.274;7.794;2023-12-28T14:09:58;4.18;;;1.88;;
21721;SDS011;11023;48.274;7.794;2023-12-28T14:12:24;3.13;;;1.85;;
21721;SDS011;11023;48.274;7.794;2023-12-28T14:14:49;3.10;;;1.55;;
21721;SDS011;11023;48.274;7.794;2023-12-28T14:17:15;3.13;;;1.73;;
21721;SDS011;11023;48.274;7.794;2023-12-28T14:19:44;2.38;;;1.35;;
21721;SDS011;11023;48.274;7.794;2023-12-28T14:22:11;4.03;;;1.70;;
21721;SDS011;11023;48.274;7.794;2023-12-28T14:24:37;3.40;;;1.52;;
21721;SDS011;11023;48.274;7.794;2023-12-28T14:27:04;4.78;;;1.45;;
21721;SDS011;11023;48.274;7.794;2023-12-28T14:29:30;3.15;;;1.40;;
21721;SDS011;11023;48.274;7.794;2023-12-28T14:31:56;2.88;;;1.52;;
21721;SDS011;11023;48.274;7.794;2023-12-28T14:34:22;3.85;;;1.63;;
21721;SDS011;11023;48.274;7.794;2023-12-28T14:36:48;2.65;;;1.38;;
21721;SDS011;11023;48.274;7.794;2023-12-28T14:39:17;3.85;;;1.60;;
21721;SDS011;11023;48.274;7.794;2023-12-28T14:41:46;4.47;;;1.98;;
21721;SDS011;11023;48.274;7.794;2023-12-28T14:44:11;6.15;;;1.95;;
21721;SDS011;11023;48.274;7.794;2023-12-28T14:46:37;2.88;;;1.70;;
21721;SDS011;11023;48.274;7.794;2023-12-28T14:49:03;3.17;;;1.88;;
21721;SDS011;11023;48.274;7.794;2023-12-28T14:51:29;4.10;;;2.00;;
21721;SDS011;11023;48.274;7.794;2023-12-28T14:53:56;2.92;;;1.80;;